createdAt,value
2018-01-27T00:01:34.554Z,101916
2018-01-27T00:04:02.749Z,101915
2018-01-27T00:06:30.945Z,101913
2018-01-27T00:08:59.142Z,101917
2018-01-27T00:11:27.354Z,101928
2018-01-27T00:13:55.553Z,101922
2018-01-27T00:16:23.749Z,101922
2018-01-27T00:18:51.962Z,101930
2018-01-27T00:21:20.948Z,101924
2018-01-27T00:23:49.993Z,101927
2018-01-27T00:26:18.209Z,101932
2018-01-27T00:28:46.493Z,101933
2018-01-27T00:31:15.485Z,101926
2018-01-27T00:33:44.428Z,101930
2018-01-27T00:36:12.667Z,101938
2018-01-27T00:38:40.906Z,101937
2018-01-27T00:41:09.121Z,101934
2018-01-27T00:43:37.325Z,101937
2018-01-27T00:46:06.242Z,101933
2018-01-27T00:48:34.614Z,101939
2018-01-27T00:51:02.812Z,101941
2018-01-27T00:53:31.782Z,101936
2018-01-27T00:55:59.991Z,101945
2018-01-27T00:58:29.442Z,101931
2018-01-27T01:00:58.415Z,101936
2018-01-27T01:03:28.090Z,101939
2018-01-27T01:05:57.039Z,101945
2018-01-27T01:08:25.211Z,101948
2018-01-27T01:10:53.394Z,101965
2018-01-27T01:13:21.985Z,101956
2018-01-27T01:15:50.162Z,101962
2018-01-27T01:18:18.327Z,101958
2018-01-27T01:20:47.066Z,101959
2018-01-27T01:23:15.285Z,101966
2018-01-27T01:25:43.582Z,101966
2018-01-27T01:28:12.758Z,101966
2018-01-27T01:30:40.966Z,101960
2018-01-27T01:33:09.142Z,101962
2018-01-27T01:35:37.335Z,101967
2018-01-27T01:38:05.522Z,101972
2018-01-27T01:40:33.733Z,101977
2018-01-27T01:43:07.608Z,101979
2018-01-27T01:45:36.086Z,101979
2018-01-27T01:48:04.294Z,101989
2018-01-27T01:50:32.582Z,101988
2018-01-27T01:53:01.518Z,101992
2018-01-27T01:55:29.718Z,101989
2018-01-27T01:57:57.922Z,101997
2018-01-27T02:00:26.867Z,101995
2018-01-27T02:02:55.066Z,101990
2018-01-27T02:05:23.276Z,101995
2018-01-27T02:07:51.511Z,101994
2018-01-27T02:10:19.806Z,101998
2018-01-27T02:12:48.802Z,102008
2018-01-27T02:15:17.763Z,101994
2018-01-27T02:17:45.959Z,101995
2018-01-27T02:20:14.149Z,102006
2018-01-27T02:22:44.036Z,102013
2018-01-27T02:25:12.273Z,101999
2018-01-27T02:27:40.450Z,102005
2018-01-27T02:30:08.663Z,102012
2018-01-27T02:32:37.797Z,102002
2018-01-27T02:35:06.577Z,102005
2018-01-27T03:23:27.714Z,102063
2018-01-27T03:25:55.883Z,102067
2018-01-27T03:28:24.073Z,102067
2018-01-27T03:30:52.265Z,102072
2018-01-27T03:33:21.337Z,102073
2018-01-27T03:35:49.511Z,102066
2018-01-27T03:38:17.765Z,102071
2018-01-27T03:40:45.951Z,102084
2018-01-27T03:43:14.134Z,102085
2018-01-27T03:45:42.376Z,102085
2018-01-27T03:48:10.566Z,102088
2018-01-27T03:50:38.790Z,102103
2018-01-27T03:53:08.537Z,102099
2018-01-27T03:55:36.714Z,102091
2018-01-27T03:58:04.944Z,102097
2018-01-27T04:00:33.926Z,102107
2018-01-27T04:03:02.730Z,102102
2018-01-27T04:05:30.937Z,102111
2018-01-27T04:07:59.134Z,102116
2018-01-27T04:10:27.327Z,102125
2018-01-27T04:12:55.935Z,102121
2018-01-27T04:15:24.941Z,102122
2018-01-27T04:17:54.034Z,102134
2018-01-27T04:20:22.288Z,102132
2018-01-27T04:22:51.234Z,102121
2018-01-27T04:25:19.422Z,102136
2018-01-27T04:27:47.722Z,102136
2018-01-27T04:30:16.656Z,102134
2018-01-27T04:32:44.851Z,102140
2018-01-27T04:35:13.043Z,102134
2018-01-27T04:37:41.237Z,102148
2018-01-27T04:40:10.241Z,102144
2018-01-27T04:42:38.415Z,102145
2018-01-27T04:45:06.626Z,102136
2018-01-27T04:47:35.045Z,102152
2018-01-27T04:50:04.010Z,102150
2018-01-27T04:52:32.182Z,102153
2018-01-27T04:55:00.370Z,102154
2018-01-27T04:57:28.554Z,102160
2018-01-27T04:59:56.735Z,102155
2018-01-27T05:02:25.925Z,102164
2018-01-27T05:04:54.886Z,102160
2018-01-27T05:07:23.059Z,102161
2018-01-27T05:09:51.266Z,102164
2018-01-27T05:12:20.522Z,102167
2018-01-27T05:14:48.713Z,102180
2018-01-27T05:17:17.303Z,102173
2018-01-27T05:19:45.550Z,102180
2018-01-27T05:22:13.754Z,102175
2018-01-27T05:24:42.007Z,102189
2018-01-27T05:27:10.195Z,102193
2018-01-27T05:29:38.378Z,102187
2018-01-27T05:32:06.578Z,102198
2018-01-27T05:34:35.526Z,102208
2018-01-27T05:37:04.614Z,102205
2018-01-27T05:39:32.893Z,102211
2018-01-27T05:42:01.112Z,102212
2018-01-27T05:44:29.350Z,102226
2018-01-27T05:46:57.902Z,102233
2018-01-27T05:49:27.058Z,102233
2018-01-27T05:51:56.841Z,102239
2018-01-27T05:54:25.881Z,102246
2018-01-27T05:56:54.170Z,102242
2018-01-27T05:59:22.357Z,102246
2018-01-27T06:01:50.618Z,102244
2018-01-27T06:04:18.797Z,102250
2018-01-27T06:06:47.005Z,102259
2018-01-27T06:09:15.175Z,102255
2018-01-27T06:11:43.390Z,102266
2018-01-27T06:14:11.568Z,102260
2018-01-27T06:16:39.786Z,102259
2018-01-27T06:19:07.956Z,102261
2018-01-27T06:21:36.152Z,102271
2018-01-27T06:24:04.486Z,102281
2018-01-27T06:26:32.686Z,102282
2018-01-27T06:29:00.967Z,102281
2018-01-27T06:31:29.197Z,102280
2018-01-27T06:33:57.372Z,102285
2018-01-27T06:36:25.594Z,102292
2018-01-27T06:38:53.802Z,102302
2018-01-27T06:41:21.979Z,102301
2018-01-27T06:43:50.275Z,102303
2018-01-27T06:46:18.532Z,102306
2018-01-27T06:48:46.846Z,102317
2018-01-27T06:51:15.156Z,102315
2018-01-27T06:53:43.345Z,102323
2018-01-27T06:56:12.318Z,102316
2018-01-27T06:58:40.507Z,102321
2018-01-27T07:01:09.482Z,102332
2018-01-27T07:03:37.739Z,102334
2018-01-27T07:06:05.934Z,102329
2018-01-27T07:08:34.131Z,102334
2018-01-27T07:11:02.358Z,102338
2018-01-27T07:13:30.582Z,102352
2018-01-27T07:15:58.823Z,102352
2018-01-27T07:18:27.335Z,102357
2018-01-27T07:20:55.697Z,102354
2018-01-27T07:23:24.666Z,102370
2018-01-27T07:25:52.866Z,102368
2018-01-27T07:28:22.297Z,102370
2018-01-27T07:30:51.290Z,102378
2018-01-27T07:33:19.516Z,102374
2018-01-27T07:35:47.782Z,102378
2018-01-27T07:38:15.974Z,102382
2018-01-27T07:40:44.957Z,102385
2018-01-27T07:43:13.166Z,102392
2018-01-27T07:45:41.374Z,102395
2018-01-27T07:48:09.574Z,102399
2018-01-27T07:50:37.847Z,102402
2018-01-27T07:53:06.773Z,102401
2018-01-27T07:55:35.211Z,102399
2018-01-27T07:58:03.402Z,102407
2018-01-27T08:00:31.570Z,102407
2018-01-27T08:02:59.858Z,102414
2018-01-27T08:05:28.821Z,102424
2018-01-27T08:07:57.042Z,102425
2018-01-27T08:10:25.269Z,102425
2018-01-27T08:12:53.439Z,102422
2018-01-27T08:15:21.773Z,102425
2018-01-27T08:17:49.951Z,102430
2018-01-27T08:20:18.118Z,102427
2018-01-27T08:22:46.338Z,102429
2018-01-27T08:25:14.506Z,102420
2018-01-27T08:27:42.674Z,102428
2018-01-27T08:30:10.858Z,102425
2018-01-27T08:32:39.026Z,102435
2018-01-27T08:35:07.202Z,102434
2018-01-27T08:37:35.370Z,102431
2018-01-27T08:40:03.554Z,102431
2018-01-27T08:42:31.814Z,102433
2018-01-27T08:45:00.009Z,102426
2018-01-27T08:47:28.986Z,102440
2018-01-27T08:49:57.213Z,102442
2018-01-27T08:52:25.408Z,102441
2018-01-27T08:54:53.638Z,102444
2018-01-27T08:57:22.694Z,102443
2018-01-27T08:59:50.885Z,102445
2018-01-27T09:02:19.218Z,102441
2018-01-27T09:04:47.450Z,102448
2018-01-27T09:07:16.399Z,102447
2018-01-27T09:09:44.602Z,102441
2018-01-27T09:12:12.781Z,102444
2018-01-27T09:14:40.971Z,102453
2018-01-27T09:17:09.958Z,102449
2018-01-27T09:19:39.766Z,102452
2018-01-27T09:22:09.390Z,102456
2018-01-27T09:24:38.397Z,102457
2018-01-27T09:27:06.562Z,102455
2018-01-27T09:29:34.766Z,102465
2018-01-27T09:32:02.962Z,102471
2018-01-27T09:34:31.203Z,102476
2018-01-27T09:36:59.382Z,102488
2018-01-27T09:39:28.097Z,102486
2018-01-27T09:41:56.280Z,102489
2018-01-27T09:44:24.489Z,102477
2018-01-27T09:46:52.918Z,102488
2018-01-27T09:49:21.111Z,102495
2018-01-27T09:51:50.365Z,102490
2018-01-27T09:54:18.590Z,102478
2018-01-27T09:56:47.554Z,102492
2018-01-27T09:59:15.722Z,102486
2018-01-27T10:01:43.934Z,102482
2018-01-27T10:04:13.710Z,102494
2018-01-27T10:06:41.998Z,102481
2018-01-27T10:09:10.214Z,102472
2018-01-27T10:11:38.395Z,102480
2018-01-27T10:14:06.573Z,102474
2018-01-27T10:16:34.798Z,102473
2018-01-27T10:19:03.302Z,102476
2018-01-27T10:21:32.246Z,102487
2018-01-27T10:24:00.434Z,102480
2018-01-27T10:26:28.706Z,102482
2018-01-27T10:28:57.009Z,102491
2018-01-27T10:31:26.282Z,102491
2018-01-27T10:33:54.654Z,102491
2018-01-27T10:36:22.854Z,102482
2018-01-27T10:38:52.510Z,102488
2018-01-27T10:41:22.237Z,102488
2018-01-27T10:43:50.822Z,102492
2018-01-27T10:46:18.998Z,102488
2018-01-27T10:48:47.180Z,102494
2018-01-27T10:51:15.756Z,102495
2018-01-27T10:53:43.984Z,102508
2018-01-27T10:56:12.206Z,102501
2018-01-27T10:58:40.897Z,102509
2018-01-27T11:01:09.199Z,102505
2018-01-27T11:03:38.178Z,102511
2018-01-27T11:06:07.151Z,102524
2018-01-27T11:08:35.402Z,102523
2018-01-27T11:11:03.822Z,102525
2018-01-27T11:13:32.026Z,102529
2018-01-27T11:16:00.207Z,102534
2018-01-27T11:18:28.375Z,102527
2018-01-27T11:20:56.593Z,102529
2018-01-27T11:23:24.893Z,102541
2018-01-27T11:25:53.862Z,102540
2018-01-27T11:28:22.172Z,102534
2018-01-27T11:30:51.442Z,102551
2018-01-27T11:33:19.774Z,102548
2018-01-27T11:35:47.985Z,102549
2018-01-27T11:38:16.202Z,102544
2018-01-27T11:40:44.438Z,102542
2018-01-27T11:43:12.707Z,102540
2018-01-27T11:45:40.902Z,102541
2018-01-27T11:48:09.168Z,102543
2018-01-27T11:50:37.437Z,102545
2018-01-27T11:53:05.634Z,102550
2018-01-27T11:55:34.625Z,102562
2018-01-27T11:58:04.029Z,102547
2018-01-27T12:00:32.970Z,102551
2018-01-27T12:03:01.178Z,102546
2018-01-27T12:05:29.370Z,102549
2018-01-27T12:07:58.343Z,102547
2018-01-27T12:10:26.618Z,102541
2018-01-27T12:12:54.990Z,102521
2018-01-27T12:15:23.978Z,102517
2018-01-27T12:17:52.391Z,102524
2018-01-27T12:20:20.576Z,102520
2018-01-27T12:22:48.754Z,102518
2018-01-27T12:25:17.002Z,102512
2018-01-27T12:27:45.975Z,102512
2018-01-27T12:30:14.170Z,102505
2018-01-27T12:32:43.454Z,102507
2018-01-27T12:35:11.626Z,102515
2018-01-27T12:37:39.838Z,102520
2018-01-27T12:40:08.082Z,102513
2018-01-27T12:42:37.159Z,102507
2018-01-27T12:45:05.394Z,102512
2018-01-27T12:47:33.584Z,102503
2018-01-27T12:50:01.751Z,102503
2018-01-27T12:52:30.082Z,102500
2018-01-27T12:54:59.061Z,102494
2018-01-27T12:57:27.238Z,102466
2018-01-27T12:59:56.226Z,102452
2018-01-27T13:02:24.410Z,102459
2018-01-27T13:04:53.370Z,102455
2018-01-27T13:07:21.570Z,102460
2018-01-27T13:09:49.801Z,102454
2018-01-27T13:12:18.004Z,102444
2018-01-27T13:14:46.330Z,102448
2018-01-27T13:17:14.549Z,102450
2018-01-27T13:19:43.518Z,102444
2018-01-27T13:22:11.690Z,102446
2018-01-27T13:24:39.917Z,102467
2018-01-27T13:27:08.877Z,102456
2018-01-27T13:29:37.077Z,102461
2018-01-27T13:32:06.078Z,102480
2018-01-27T13:34:35.054Z,102476
2018-01-27T13:37:03.251Z,102474
2018-01-27T13:39:31.461Z,102479
2018-01-27T13:41:59.665Z,102479
2018-01-27T13:44:27.935Z,102484
2018-01-27T13:46:56.211Z,102478
2018-01-27T13:49:24.406Z,102473
2018-01-27T13:51:53.393Z,102480
2018-01-27T13:54:22.357Z,102479
2018-01-27T13:56:50.810Z,102478
2018-01-27T13:59:18.993Z,102484
2018-01-27T14:01:47.218Z,102474
2018-01-27T14:04:16.230Z,102492
2018-01-27T14:06:44.473Z,102486
2018-01-27T14:09:12.669Z,102495
2018-01-27T14:11:40.910Z,102495
2018-01-27T14:14:09.113Z,102495
2018-01-27T14:16:37.318Z,102486
2018-01-27T14:19:05.742Z,102486
2018-01-27T14:21:33.946Z,102492
2018-01-27T14:24:02.218Z,102504
2018-01-27T14:26:30.473Z,102505
2018-01-27T14:28:59.447Z,102504
2018-01-27T14:31:27.658Z,102504
2018-01-27T14:33:56.610Z,102501
2018-01-27T14:36:40.631Z,102494
2018-01-27T14:39:08.846Z,102488
2018-01-27T14:41:37.844Z,102492
2018-01-27T14:44:06.807Z,102506
2018-01-27T14:46:35.050Z,102506
2018-01-27T14:49:03.228Z,102502
2018-01-27T14:51:31.626Z,102502
2018-01-27T14:53:59.814Z,102510
2018-01-27T14:56:28.013Z,102512
2018-01-27T14:58:56.977Z,102520
2018-01-27T15:01:25.184Z,102513
2018-01-27T15:03:54.126Z,102513
2018-01-27T15:06:22.360Z,102522
2018-01-27T15:08:50.618Z,102523
2018-01-27T15:11:19.558Z,102520
2018-01-27T15:13:47.744Z,102508
2018-01-27T15:16:15.907Z,102520
2018-01-27T15:18:44.218Z,102508
2018-01-27T15:21:12.411Z,102510
2018-01-27T15:23:41.394Z,102510
2018-01-27T15:26:10.462Z,102515
2018-01-27T15:28:38.665Z,102501
2018-01-27T15:31:07.802Z,102505
2018-01-27T15:33:36.111Z,102505
2018-01-27T15:36:04.412Z,102503
2018-01-27T15:38:33.369Z,102494
2018-01-27T15:41:01.559Z,102500
2018-01-27T15:43:29.841Z,102492
2018-01-27T15:45:58.799Z,102495
2018-01-27T15:48:27.198Z,102501
2018-01-27T15:50:55.798Z,102492
2018-01-27T15:53:24.770Z,102493
2018-01-27T15:55:53.837Z,102496
2018-01-27T15:58:22.027Z,102498
2018-01-27T16:00:50.235Z,102502
2018-01-27T16:03:19.194Z,102496
2018-01-27T16:05:47.406Z,102500
2018-01-27T16:08:15.648Z,102509
2018-01-27T16:10:43.845Z,102507
2018-01-27T16:13:12.833Z,102510
2018-01-27T16:15:41.795Z,102493
2018-01-27T16:18:10.024Z,102499
2018-01-27T16:20:38.226Z,102486
2018-01-27T16:23:06.401Z,102499
2018-01-27T16:25:34.626Z,102499
2018-01-27T16:28:03.594Z,102488
2018-01-27T16:30:31.888Z,102495
2018-01-27T16:33:00.873Z,102491
2018-01-27T16:35:29.873Z,102486
2018-01-27T16:37:58.822Z,102485
2018-01-27T16:40:27.022Z,102497
2018-01-27T16:42:55.234Z,102494
2018-01-27T16:45:23.420Z,102483
2018-01-27T16:47:52.162Z,102495
2018-01-27T16:50:21.141Z,102495
2018-01-27T16:52:49.494Z,102495
2018-01-27T16:55:17.666Z,102494
2018-01-27T16:57:45.854Z,102495
2018-01-27T17:00:14.444Z,102498
2018-01-27T17:02:42.679Z,102495
2018-01-27T17:05:10.854Z,102494
2018-01-27T17:07:39.043Z,102490
2018-01-27T17:10:07.249Z,102490
2018-01-27T17:12:35.470Z,102494
2018-01-27T17:15:03.670Z,102485
2018-01-27T17:17:31.886Z,102475
2018-01-27T17:20:00.991Z,102474
2018-01-27T17:22:29.434Z,102484
2018-01-27T17:24:57.606Z,102471
2018-01-27T17:27:25.806Z,102471
2018-01-27T17:29:54.775Z,102473
2018-01-27T17:32:23.063Z,102459
2018-01-27T17:34:52.010Z,102460
2018-01-27T17:37:20.212Z,102441
2018-01-27T17:39:48.511Z,102439
2018-01-27T17:42:17.478Z,102437
2018-01-27T17:44:46.278Z,102432
2018-01-27T17:47:14.466Z,102427
2018-01-27T17:49:43.463Z,102429
2018-01-27T17:52:12.429Z,102414
2018-01-27T17:54:40.611Z,102415
2018-01-27T17:57:08.826Z,102422
2018-01-27T17:59:37.011Z,102419
2018-01-27T18:02:05.231Z,102422
2018-01-27T18:04:34.225Z,102413
2018-01-27T18:07:02.428Z,102408
2018-01-27T18:09:30.617Z,102413
2018-01-27T18:11:58.802Z,102409
2018-01-27T18:14:27.471Z,102414
2018-01-27T18:16:55.674Z,102417
2018-01-27T18:19:23.987Z,102417
2018-01-27T18:21:52.958Z,102412
2018-01-27T18:24:21.140Z,102402
2018-01-27T18:26:49.409Z,102409
2018-01-27T18:29:17.582Z,102415
2018-01-27T18:31:45.826Z,102390
2018-01-27T18:34:14.031Z,102403
2018-01-27T18:36:42.210Z,102401
2018-01-27T18:39:10.414Z,102390
2018-01-27T18:41:38.609Z,102396
2018-01-27T18:44:06.787Z,102399
2018-01-27T18:46:35.031Z,102386
2018-01-27T18:49:03.230Z,102384
2018-01-27T18:51:31.441Z,102374
2018-01-27T18:53:59.626Z,102374
2018-01-27T18:56:27.841Z,102365
2018-01-27T18:58:56.065Z,102373
2018-01-27T19:01:24.983Z,102369
2018-01-27T19:03:54.738Z,102351
2018-01-27T19:06:22.962Z,102347
2018-01-27T19:08:51.928Z,102344
2018-01-27T19:11:20.121Z,102349
2018-01-27T19:13:49.087Z,102362
2018-01-27T19:16:17.374Z,102362
2018-01-27T19:18:45.589Z,102340
2018-01-27T19:21:13.809Z,102347
2018-01-27T19:23:42.436Z,102348
2018-01-27T19:26:10.614Z,102331
2018-01-27T19:28:38.799Z,102325
2018-01-27T19:31:06.975Z,102318
2018-01-27T19:33:35.187Z,102329
2018-01-27T19:36:03.375Z,102330
2018-01-27T19:38:31.566Z,102333
2018-01-27T19:41:00.523Z,102333
2018-01-27T19:43:28.931Z,102334
2018-01-27T19:45:57.893Z,102323
2018-01-27T19:48:26.137Z,102320
2018-01-27T19:50:54.311Z,102308
2018-01-27T19:53:22.508Z,102309
2018-01-27T19:55:50.742Z,102312
2018-01-27T19:58:18.922Z,102311
2018-01-27T20:00:47.093Z,102299
2018-01-27T20:03:15.333Z,102300
2018-01-27T20:05:44.271Z,102287
2018-01-27T20:08:12.450Z,102282
2018-01-27T20:10:40.662Z,102279
2018-01-27T20:13:08.863Z,102289
2018-01-27T20:15:37.109Z,102269
2018-01-27T20:18:05.320Z,102251
2018-01-27T20:20:33.596Z,102251
2018-01-27T20:23:02.114Z,102244
2018-01-27T20:25:30.310Z,102243
2018-01-27T20:27:59.210Z,102238
2018-01-27T20:30:27.422Z,102241
2018-01-27T20:32:55.626Z,102243
2018-01-27T20:35:23.826Z,102247
2018-01-27T20:37:52.183Z,102257
2018-01-27T20:40:20.374Z,102275
2018-01-27T20:42:48.570Z,102283
2018-01-27T20:45:17.509Z,102265
2018-01-27T20:47:45.719Z,102257
2018-01-27T20:50:14.684Z,102260
2018-01-27T20:52:42.859Z,102256
2018-01-27T20:55:11.110Z,102250
2018-01-27T20:57:39.301Z,102221
2018-01-27T21:00:07.470Z,102207
2018-01-27T21:02:35.765Z,102191
2018-01-27T21:05:03.980Z,102190
2018-01-27T21:07:32.415Z,102193
2018-01-27T21:10:00.654Z,102188
2018-01-27T21:12:28.840Z,102188
2018-01-27T21:14:57.049Z,102187
2018-01-27T21:17:26.149Z,102192
2018-01-27T21:19:55.160Z,102187
2018-01-27T21:22:24.134Z,102189
2018-01-27T21:24:53.237Z,102193
2018-01-27T21:27:22.262Z,102199
2018-01-27T21:29:50.478Z,102192
2018-01-27T21:32:18.691Z,102175
2018-01-27T21:34:47.255Z,102180
2018-01-27T21:37:16.234Z,102166
2018-01-27T21:39:44.460Z,102157
2018-01-27T21:42:12.661Z,102139
2018-01-27T21:44:41.954Z,102156
2018-01-27T21:47:10.233Z,102167
2018-01-27T21:49:38.430Z,102165
2018-01-27T21:52:06.634Z,102160
2018-01-27T21:54:34.829Z,102162
2018-01-27T21:57:03.066Z,102155
2018-01-27T21:59:32.043Z,102142
2018-01-27T22:02:00.335Z,102129
2018-01-27T22:04:29.334Z,102127
2018-01-27T22:06:58.307Z,102114
2018-01-27T22:09:28.094Z,102120
2018-01-27T22:11:56.338Z,102098
2018-01-27T22:14:24.579Z,102096
2018-01-27T22:16:53.525Z,102082
2018-01-27T22:19:21.750Z,102066
2018-01-27T22:21:51.802Z,102056
2018-01-27T22:24:20.221Z,102060
2018-01-27T22:26:48.438Z,102057
2018-01-27T22:29:16.646Z,102064
2018-01-27T22:31:45.082Z,102052
2018-01-27T22:34:13.250Z,102046
2018-01-27T22:36:42.186Z,102037
2018-01-27T22:39:10.446Z,102027
2018-01-27T22:41:38.874Z,102031
2018-01-27T22:44:07.837Z,102017
2018-01-27T22:46:36.246Z,102010
2018-01-27T22:49:04.434Z,102006
2018-01-27T22:51:33.394Z,102000
2018-01-27T22:54:01.609Z,102003
2018-01-27T22:56:29.790Z,102011
2018-01-27T22:58:58.032Z,102007
2018-01-27T23:01:26.978Z,102001
2018-01-27T23:03:55.174Z,102002
2018-01-27T23:06:23.414Z,102006
2018-01-27T23:08:51.613Z,102002
2018-01-27T23:11:20.158Z,101989
2018-01-27T23:13:48.350Z,101977
2018-01-27T23:16:16.553Z,101964
2018-01-27T23:18:44.779Z,101963
2018-01-27T23:21:13.681Z,101960
2018-01-27T23:23:41.854Z,101955
2018-01-27T23:26:10.141Z,101959
2018-01-27T23:28:38.337Z,101957
2018-01-27T23:31:06.551Z,101957
2018-01-27T23:33:35.602Z,101931
2018-01-27T23:36:03.987Z,101927
2018-01-27T23:38:32.162Z,101922
2018-01-27T23:41:00.344Z,101931
2018-01-27T23:43:28.562Z,101940
2018-01-27T23:45:56.741Z,101928
2018-01-27T23:48:25.074Z,101925
2018-01-27T23:50:54.062Z,101926
2018-01-27T23:53:23.030Z,101911
2018-01-27T23:55:51.451Z,101899
2018-01-27T23:58:19.703Z,101900
